Share

Cold Bay, AK

Cold Bay (PACD) Elev 102 ft | 55.22 °N, 162.73 °W | Change Station

Current weather conditions updated 39 minutes ago

Overcast
Overcast
36 °F
Feels Like 25 °F
N
21
Wind Variable Wind from NW
Sunrise 7:34 AM
Sunset 10:06 PM
Moon Waning Gibbous

Today is forecast to be nearly the same temperature as yesterday.

Pressure 29.73 in
Visibility 10.0 miles
Clouds Scattered Clouds 2100 ft
Mostly Cloudy 3000 ft
Overcast 5000 ft
Windchill 25 °F
Dew Point 29 °F
Humidity 76%
Rainfall 0.00 in
Snow Depth Not available.
UV 0 out of 16
Pollen Not available.
Air Quality Not available.
Flu Activity Sporadic
SPECI PACD 201156Z 31018KT 10SM SCT021 BKN030 OVC050 02/M02 A2973 RMK AO2 T00221017 $

More Conditions Fewer Conditions

Pressure 29.73 in
Visibility 10.0 miles
Clouds Scattered Clouds 2100 ft
Mostly Cloudy 3000 ft
Overcast 5000 ft
Windchill 25 °F
Dew Point 29 °F
Humidity 76%
Rainfall 0.00 in
Snow Depth Not available.
UV 0 out of 16
Pollen Not available.
Air Quality Not available.
Flu Activity Sporadic
SPECI PACD 201156Z 31018KT 10SM SCT021 BKN030 OVC050 02/M02 A2973 RMK AO2 T00221017 $

More Conditions Fewer Conditions

10-Day Weather Forecast

Almanac

Astronomy

Apr. 20, 2014 Rise Set
Actual Time 7:34 AM AKDT 10:06 PM AKDT
Civil Twilight 6:54 AM AKDT 10:46 PM AKDT
Nautical Twilight 6:02 AM AKDT 11:39 PM AKDT
Astronomical Twilight 4:57 AM AKDT 12:44 AM AKDT
Moon 3:16 AM AKDT 11:48 AM AKDT
Length of Visible Light 15h 52m
Length of Day
14h 31m
Tomorrow will be 4m 21s longer.
Waning Gibbous, 70% of the Moon is Illuminated
Today
Waning Gibbous
Apr 22
Last Quarter
Apr 29
New
May 6
First Quarter
May 14
Full

Today's Extremes

State Highs State Lows

Community

  • EARLY FOGGY MORNING
    EARLY FOGGY MORNING
  • Easter Greetings
    Easter Greetings
  • Sunny day at the coast-Cape Arago Lighthouse
    Sunny day at the coast-Cape Arago Lighthouse
  • Cherry Blossoms
    Cherry Blossoms
  • White-Crowned Sparrow
    White-Crowned Sparrow

WunderPhotos

Upload Photos

1,703,184 photos uploaded!

Nearby

Snow Depth

Station Depth Elevation
Port Graham 7 in 300 ft
Mcneil Canyon 8 in 1320 ft
Nuka Glacier 33 in 1250 ft
MF Bradley River 21 in 2300 ft
Cooper Lake 21 in 1200 ft

Coastal Water Temperatures

Place Temperature
No Stations Reporting

Earthquake Activity

City Distance Mag. Time & Date
No recent earthquake activity has been reported nearby.
Minimum magnitude displayed is 2.5.

Nearby Weather Stations

Station Location Temp. Windchill Dew Point Humidity Wind Precip. Elev Updated Type
HADS RUSSELL C NR COLD BAY AK , Cold Bay, AK 34 °F 34 °F - - North  at  - 0.00 in / hr 66 ft 3:00 AM AKDT MADIS

Show More Stations Show Fewer Stations

What do you think?

We're not finished. Please let us know what you like, what you don't like, and what you are still missing.